createdAt,value
2018-01-29T00:00:03.347Z,99026.88
2018-01-29T00:02:30.902Z,99021.51
2018-01-29T00:04:58.458Z,99015.09
2018-01-29T00:07:25.961Z,99009.20
2018-01-29T00:09:53.609Z,99010.09
2018-01-29T00:12:21.113Z,99002.58
2018-01-29T00:14:48.621Z,99003.13
2018-01-29T00:17:16.157Z,98999.31
2018-01-29T00:19:43.667Z,99003.06
2018-01-29T00:22:11.476Z,98997.16
2018-01-29T00:24:38.980Z,98999.80
2018-01-29T00:27:06.480Z,99001.50
2018-01-29T00:29:34.009Z,99000.61
2018-01-29T00:32:01.517Z,99000.63
2018-01-29T00:34:29.374Z,99002.72
2018-01-29T00:36:56.934Z,99001.87
2018-01-29T00:39:24.436Z,99001.89
2018-01-29T00:41:51.965Z,99003.63
2018-01-29T00:44:19.510Z,99000.20
2018-01-29T00:46:47.056Z,99003.97
2018-01-29T00:49:14.556Z,99006.53
2018-01-29T00:51:42.083Z,99000.66
2018-01-29T00:54:09.643Z,99004.13
2018-01-29T00:56:37.150Z,98994.87
2018-01-29T00:59:04.967Z,98996.19
2018-01-29T01:01:32.465Z,98994.16
2018-01-29T01:03:59.983Z,98993.36
2018-01-29T01:06:27.540Z,98995.50
2018-01-29T01:08:55.116Z,99002.27
2018-01-29T01:11:22.837Z,98992.20
2018-01-29T01:13:50.338Z,99000.64
2018-01-29T01:16:17.879Z,98993.91
2018-01-29T01:18:45.406Z,98989.70
2018-01-29T01:21:12.912Z,98984.69
2018-01-29T01:23:40.761Z,98989.31
2018-01-29T01:26:08.270Z,98990.56
2018-01-29T01:28:35.765Z,98989.73
2018-01-29T01:31:03.347Z,98992.23
2018-01-29T01:33:30.900Z,99003.19
2018-01-29T01:35:58.832Z,98991.41
2018-01-29T01:38:26.336Z,98995.61
2018-01-29T01:40:53.840Z,99003.19
2018-01-29T01:43:21.372Z,99004.45
2018-01-29T01:45:48.876Z,99001.09
2018-01-29T01:48:16.662Z,99003.19
2018-01-29T01:50:44.161Z,99001.50
2018-01-29T01:53:11.664Z,99001.93
2018-01-29T01:55:39.237Z,98995.18
2018-01-29T01:58:06.732Z,98988.05
2018-01-29T02:00:34.265Z,98988.03
2018-01-29T02:03:01.766Z,98985.94
2018-01-29T02:05:29.267Z,98985.95
2018-01-29T02:07:56.804Z,98989.29
2018-01-29T02:10:24.312Z,98986.79
2018-01-29T02:12:51.948Z,98989.30
2018-01-29T02:15:19.441Z,98980.45
2018-01-29T02:17:46.939Z,98977.93
2018-01-29T02:20:14.465Z,98982.58
2018-01-29T02:22:41.969Z,98977.08
2018-01-29T02:25:09.842Z,98971.19
2018-01-29T02:27:37.342Z,98968.70
2018-01-29T02:30:04.859Z,98967.00
2018-01-29T02:32:32.418Z,98974.16
2018-01-29T02:34:59.913Z,98977.09
2018-01-29T02:37:27.684Z,98971.22
2018-01-29T02:39:55.194Z,98963.64
2018-01-29T02:42:22.685Z,98961.08
2018-01-29T02:44:50.218Z,98964.02
2018-01-29T02:47:17.724Z,98961.90
2018-01-29T02:49:45.537Z,98953.12
2018-01-29T02:52:13.033Z,98946.80
2018-01-29T02:54:40.554Z,98945.12
2018-01-29T02:57:08.113Z,98951.82
2018-01-29T02:59:35.629Z,98955.16
2018-01-29T03:02:03.337Z,98954.36
2018-01-29T03:04:30.913Z,98954.80
2018-01-29T03:06:58.453Z,98960.28
2018-01-29T03:09:25.974Z,98960.25
2018-01-29T03:11:53.478Z,98954.36
2018-01-29T03:14:21.230Z,98955.20
2018-01-29T03:16:48.728Z,98958.11
2018-01-29T03:19:16.228Z,98955.21
2018-01-29T03:21:43.749Z,98958.56
2018-01-29T03:24:11.257Z,98954.78
2018-01-29T03:26:39.334Z,98951.00
2018-01-29T03:29:06.897Z,98942.14
2018-01-29T03:31:34.394Z,98936.31
2018-01-29T03:34:01.940Z,98937.13
2018-01-29T03:36:29.445Z,98941.32
2018-01-29T03:38:57.312Z,98946.36
2018-01-29T03:41:24.814Z,98940.47
2018-01-29T03:43:52.367Z,98937.53
2018-01-29T03:46:19.899Z,98940.46
2018-01-29T03:48:47.393Z,98935.00
2018-01-29T03:51:15.130Z,98938.31
2018-01-29T03:53:42.637Z,98936.20
2018-01-29T03:56:10.160Z,98936.22
2018-01-29T03:58:37.685Z,98935.80
2018-01-29T04:01:05.205Z,98933.66
2018-01-29T04:03:32.750Z,98932.81
2018-01-29T04:06:00.249Z,98934.53
2018-01-29T04:08:27.749Z,98929.53
2018-01-29T04:10:55.282Z,98931.23
2018-01-29T04:13:22.786Z,98933.70
2018-01-29T04:15:50.589Z,98932.85
2018-01-29T04:18:18.112Z,98926.52
2018-01-29T04:20:45.634Z,98931.95
2018-01-29T04:23:13.181Z,98929.02
2018-01-29T04:25:40.680Z,98933.27
2018-01-29T04:28:08.309Z,98938.75
2018-01-29T04:30:35.804Z,98934.14
2018-01-29T04:33:03.312Z,98929.97
2018-01-29T04:35:30.840Z,98932.05
2018-01-29T04:37:58.345Z,98936.66
2018-01-29T04:40:26.234Z,98936.22
2018-01-29T04:42:53.792Z,98934.55
2018-01-29T04:45:21.292Z,98934.53
2018-01-29T04:47:48.869Z,98927.34
2018-01-29T04:50:16.342Z,98924.85
2018-01-29T04:52:44.005Z,98916.43
2018-01-29T04:55:11.505Z,98921.51
2018-01-29T04:57:39.002Z,98911.42
2018-01-29T05:00:06.529Z,98910.58
2018-01-29T05:02:34.025Z,98908.03
2018-01-29T05:05:01.701Z,98913.93
2018-01-29T05:07:29.197Z,98914.75
2018-01-29T05:09:56.691Z,98912.25
2018-01-29T05:12:24.212Z,98909.33
2018-01-29T05:14:51.730Z,98911.89
2018-01-29T05:17:19.291Z,98898.39
2018-01-29T05:19:46.789Z,98895.86
2018-01-29T05:22:14.305Z,98896.23
2018-01-29T05:24:41.897Z,98894.19
2018-01-29T05:27:09.429Z,98894.95
2018-01-29T05:29:36.993Z,98885.61
2018-01-29T05:32:04.543Z,98884.28
2018-01-29T05:34:32.049Z,98884.64
2018-01-29T05:37:02.095Z,98886.28
2018-01-29T05:39:29.985Z,98888.77
2018-01-29T05:41:57.589Z,98889.59
2018-01-29T05:44:28.667Z,98884.91
2018-01-29T05:46:56.383Z,98881.52
2018-01-29T05:49:23.921Z,98884.06
2018-01-29T05:51:51.547Z,98892.91
2018-01-29T05:54:19.127Z,98886.54
2018-01-29T05:56:46.688Z,98897.50
2018-01-29T05:59:14.189Z,98890.75
2018-01-29T06:01:41.721Z,98892.35
2018-01-29T06:04:09.245Z,98885.20
2018-01-29T06:06:37.129Z,98890.66
2018-01-29T06:09:04.637Z,98889.81
2018-01-29T06:11:32.168Z,98890.63
2018-01-29T06:13:59.701Z,98884.29
2018-01-29T06:16:27.215Z,98878.88
2018-01-29T06:18:54.749Z,98881.78
2018-01-29T06:21:22.271Z,98883.59
2018-01-29T06:23:49.839Z,98880.37
2018-01-29T06:26:17.412Z,98889.41
2018-01-29T06:28:44.925Z,98890.56
2018-01-29T06:31:12.800Z,98890.59
2018-01-29T06:33:40.305Z,98889.97
2018-01-29T06:36:07.839Z,98888.75
2018-01-29T06:38:35.400Z,98879.59
2018-01-29T06:41:02.901Z,98879.55
2018-01-29T06:43:30.618Z,98881.59
2018-01-29T06:45:58.231Z,98880.19
2018-01-29T06:48:25.773Z,98872.39
2018-01-29T06:50:53.360Z,98875.08
2018-01-29T06:53:20.881Z,98875.14
2018-01-29T06:55:48.406Z,98869.67
2018-01-29T06:58:16.872Z,98869.69
2018-01-29T07:00:44.381Z,98869.17
2018-01-29T07:03:11.914Z,98865.45
2018-01-29T07:05:39.418Z,98868.73
2018-01-29T07:08:07.149Z,98866.50
2018-01-29T07:10:34.690Z,98859.80
2018-01-29T07:13:02.218Z,98855.93
2018-01-29T07:15:29.753Z,98852.33
2018-01-29T07:17:57.257Z,98851.77
2018-01-29T07:20:25.029Z,98850.61
2018-01-29T07:22:52.528Z,98858.35
2018-01-29T07:25:20.045Z,98859.59
2018-01-29T07:27:47.612Z,98861.61
2018-01-29T07:30:15.189Z,98854.30
2018-01-29T07:32:42.752Z,98844.27
2018-01-29T07:35:10.257Z,98847.92
2018-01-29T07:37:37.760Z,98837.77
2018-01-29T07:40:05.297Z,98840.47
2018-01-29T07:42:32.873Z,98839.34
2018-01-29T07:45:00.483Z,98841.67
2018-01-29T07:47:28.002Z,98839.98
2018-01-29T07:49:55.517Z,98843.45
2018-01-29T07:52:23.071Z,98836.20
2018-01-29T07:54:50.590Z,98828.49
2018-01-29T07:57:18.583Z,98830.23
2018-01-29T07:59:46.093Z,98828.68
2018-01-29T08:02:13.637Z,98827.59
2018-01-29T08:04:41.196Z,98824.03
2018-01-29T08:07:08.707Z,98823.33
2018-01-29T08:09:36.745Z,98812.03
2018-01-29T08:12:04.284Z,98813.48
2018-01-29T08:14:32.047Z,98809.36
2018-01-29T08:16:59.594Z,98805.63
2018-01-29T08:19:27.103Z,98809.26
2018-01-29T08:21:54.829Z,98814.18
2018-01-29T08:24:22.388Z,98806.77
2018-01-29T08:26:49.906Z,98805.20
2018-01-29T08:29:17.454Z,98804.20
2018-01-29T08:31:46.005Z,98814.39
2018-01-29T08:34:13.751Z,98809.19
2018-01-29T08:36:41.261Z,98818.81
2018-01-29T08:39:08.769Z,98818.25
2018-01-29T08:41:36.339Z,98822.43
2018-01-29T08:44:03.857Z,98822.39
2018-01-29T08:46:31.649Z,98819.84
2018-01-29T08:48:59.178Z,98821.31
2018-01-29T08:51:26.702Z,98817.07
2018-01-29T08:53:54.267Z,98822.23
2018-01-29T08:56:21.786Z,98817.66
2018-01-29T08:58:49.525Z,98810.08
2018-01-29T09:01:17.059Z,98816.27
2018-01-29T09:03:44.579Z,98815.95
2018-01-29T09:06:12.123Z,98810.97
2018-01-29T09:08:39.689Z,98815.14
2018-01-29T09:11:07.522Z,98811.06
2018-01-29T09:13:35.039Z,98813.18
2018-01-29T09:16:02.573Z,98796.69
2018-01-29T09:18:30.224Z,98782.05
2018-01-29T09:20:57.742Z,98783.59
2018-01-29T09:23:25.437Z,98780.15
2018-01-29T09:25:52.959Z,98771.81
2018-01-29T09:28:20.486Z,98777.75
2018-01-29T09:30:48.039Z,98776.05
2018-01-29T09:33:15.563Z,98771.80
2018-01-29T09:35:43.360Z,98768.22
2018-01-29T09:38:10.801Z,98768.27
2018-01-29T09:40:38.368Z,98767.17
2018-01-29T09:43:05.946Z,98759.95
2018-01-29T09:45:33.457Z,98757.61
2018-01-29T09:48:00.999Z,98761.26
2018-01-29T09:50:28.510Z,98759.24
2018-01-29T09:52:56.029Z,98769.50
2018-01-29T09:55:23.563Z,98776.19
2018-01-29T09:57:51.071Z,98780.36
2018-01-29T10:00:18.833Z,98781.77
2018-01-29T10:02:46.392Z,98774.77
2018-01-29T10:05:13.897Z,98782.20
2018-01-29T10:07:41.451Z,98770.45
2018-01-29T10:10:08.979Z,98767.17
2018-01-29T10:12:36.529Z,98762.30
2018-01-29T10:15:04.038Z,98757.64
2018-01-29T10:17:31.548Z,98754.08
2018-01-29T10:19:59.069Z,98748.75
2018-01-29T10:22:26.581Z,98744.48
2018-01-29T10:24:54.322Z,98739.28
2018-01-29T10:27:21.821Z,98733.45
2018-01-29T10:29:49.325Z,98728.03
2018-01-29T10:32:19.645Z,98723.98
2018-01-29T10:34:50.660Z,98721.86
2018-01-29T10:37:21.225Z,98726.59
2018-01-29T10:39:48.778Z,98718.67
2018-01-29T10:42:16.308Z,98711.91
2018-01-29T10:44:43.820Z,98699.98
2018-01-29T10:47:11.368Z,98695.48
2018-01-29T10:49:38.865Z,98694.66
2018-01-29T10:52:06.381Z,98695.69
2018-01-29T10:54:33.941Z,98693.20
2018-01-29T10:57:01.439Z,98685.21
2018-01-29T10:59:28.974Z,98678.50
2018-01-29T11:02:02.367Z,98679.92
2018-01-29T11:04:29.911Z,98671.44
2018-01-29T11:06:57.427Z,98654.39
2018-01-29T11:09:24.956Z,98655.72
2018-01-29T11:11:52.511Z,98646.20
2018-01-29T11:14:20.200Z,98642.50
2018-01-29T11:16:47.709Z,98639.37
2018-01-29T11:19:15.212Z,98634.91
2018-01-29T11:21:42.927Z,98632.36
2018-01-29T11:24:10.897Z,98630.78
2018-01-29T11:26:38.456Z,98626.29
2018-01-29T11:29:06.016Z,98617.62
2018-01-29T11:31:33.519Z,98614.19
2018-01-29T11:34:01.051Z,98614.81
2018-01-29T11:36:28.640Z,98607.66
2018-01-29T11:38:56.660Z,98610.31
2018-01-29T11:41:24.632Z,98611.59
2018-01-29T11:43:52.133Z,98611.64
2018-01-29T11:46:19.665Z,98598.84
2018-01-29T11:48:47.188Z,98598.67
2018-01-29T11:51:14.969Z,98593.70
2018-01-29T11:53:42.529Z,98585.03
2018-01-29T11:56:10.034Z,98584.25
2018-01-29T11:58:37.562Z,98575.93
2018-01-29T12:01:05.104Z,98572.20
2018-01-29T12:03:32.678Z,98564.05
2018-01-29T12:06:00.180Z,98571.03
2018-01-29T12:08:27.679Z,98559.34
2018-01-29T12:10:55.206Z,98555.14
2018-01-29T12:13:22.724Z,98553.17
2018-01-29T12:15:50.256Z,98557.16
2018-01-29T12:18:17.757Z,98554.28
2018-01-29T12:20:45.256Z,98552.48
2018-01-29T12:23:12.784Z,98548.34
2018-01-29T12:25:40.297Z,98541.23
2018-01-29T12:28:08.249Z,98537.75
2018-01-29T12:30:35.762Z,98534.41
2018-01-29T12:33:03.266Z,98538.29
2018-01-29T12:35:30.831Z,98537.01
2018-01-29T12:37:58.337Z,98535.56
2018-01-29T12:40:26.157Z,98537.01
2018-01-29T12:42:59.836Z,98526.59
2018-01-29T12:45:29.242Z,98515.27
2018-01-29T12:48:10.404Z,98521.79
2018-01-29T12:50:40.841Z,98511.16
2018-01-29T12:53:11.825Z,98507.07
2018-01-29T12:55:45.608Z,98496.88
2018-01-29T12:58:15.171Z,98498.50
2018-01-29T13:00:43.193Z,98496.41
2018-01-29T13:03:17.050Z,98484.81
2018-01-29T13:05:48.297Z,98487.59
2018-01-29T13:08:36.990Z,98482.91
2018-01-29T13:11:15.292Z,98475.89
2018-01-29T13:13:48.694Z,98472.30
2018-01-29T13:16:18.729Z,98462.22
2018-01-29T13:18:50.962Z,98465.66
2018-01-29T13:21:22.780Z,98451.62
2018-01-29T13:23:51.648Z,98453.17
2018-01-29T13:26:23.428Z,98436.77
2018-01-29T13:28:55.273Z,98440.89
2018-01-29T13:31:28.638Z,98441.30
2018-01-29T13:33:57.536Z,98442.77
2018-01-29T13:36:30.545Z,98430.69
2018-01-29T13:38:58.900Z,98427.41
2018-01-29T13:41:26.409Z,98437.64
2018-01-29T13:43:54.452Z,98435.80
2018-01-29T13:46:24.133Z,98423.87
2018-01-29T13:48:51.628Z,98419.77
2018-01-29T13:51:19.562Z,98424.41
2018-01-29T13:53:50.528Z,98428.30
2018-01-29T13:56:29.920Z,98422.42
2018-01-29T13:58:59.260Z,98425.85
2018-01-29T14:01:46.464Z,98427.08
2018-01-29T14:04:18.777Z,98426.15
2018-01-29T14:06:48.448Z,98416.75
2018-01-29T14:09:15.996Z,98413.67
2018-01-29T14:11:49.369Z,98404.53
2018-01-29T14:14:16.864Z,98403.06
2018-01-29T14:16:45.904Z,98407.51
2018-01-29T14:19:14.370Z,98413.96
2018-01-29T14:21:41.933Z,98410.34
2018-01-29T14:24:18.246Z,98420.49
2018-01-29T14:26:45.752Z,98414.73
2018-01-29T14:29:14.269Z,98411.98
2018-01-29T14:31:47.173Z,98412.38
2018-01-29T14:34:19.753Z,98413.17
2018-01-29T14:36:51.713Z,98408.23
2018-01-29T14:39:23.136Z,98401.39
2018-01-29T14:41:56.838Z,98393.77
2018-01-29T14:44:40.872Z,98400.09
2018-01-29T14:47:10.469Z,98398.73
2018-01-29T14:49:40.235Z,98405.14
2018-01-29T14:52:30.522Z,98410.33
2018-01-29T14:54:58.081Z,98405.48
2018-01-29T14:57:25.877Z,98406.03
2018-01-29T14:59:53.388Z,98406.84
2018-01-29T15:02:21.852Z,98406.83
2018-01-29T15:04:49.389Z,98400.66
2018-01-29T15:07:17.720Z,98401.22
2018-01-29T15:09:45.456Z,98401.05
2018-01-29T15:12:12.972Z,98412.38
2018-01-29T15:14:41.406Z,98410.14
2018-01-29T15:17:12.220Z,98405.59
2018-01-29T15:19:40.314Z,98406.42
2018-01-29T15:22:14.830Z,98410.20
2018-01-29T15:24:43.385Z,98414.22
2018-01-29T15:27:10.901Z,98413.47
2018-01-29T15:29:38.448Z,98413.22
2018-01-29T15:32:08.998Z,98408.73
2018-01-29T15:34:36.639Z,98405.19
2018-01-29T15:37:14.813Z,98405.00
2018-01-29T15:39:45.585Z,98407.06
2018-01-29T15:42:19.458Z,98406.17
2018-01-29T15:44:47.152Z,98409.55
2018-01-29T15:47:14.711Z,98404.26
2018-01-29T15:49:42.226Z,98408.25
2018-01-29T15:52:09.751Z,98414.23
2018-01-29T15:54:37.294Z,98424.17
2018-01-29T15:57:04.899Z,98423.48
2018-01-29T15:59:32.814Z,98423.27
2018-01-29T16:02:00.686Z,98426.16
2018-01-29T16:04:28.186Z,98433.43
2018-01-29T16:06:56.522Z,98431.81
2018-01-29T16:09:24.068Z,98425.25
2018-01-29T16:11:51.640Z,98426.23
2018-01-29T16:14:19.484Z,98425.23
2018-01-29T16:16:46.993Z,98428.55
2018-01-29T16:19:15.346Z,98435.34
2018-01-29T16:21:42.894Z,98442.44
2018-01-29T16:24:10.451Z,98433.72
2018-01-29T16:26:38.018Z,98428.63
2018-01-29T16:29:05.572Z,98421.82
2018-01-29T16:31:33.546Z,98424.52
2018-01-29T16:34:01.100Z,98421.72
2018-01-29T16:36:28.658Z,98431.15
2018-01-29T16:38:56.161Z,98425.14
2018-01-29T16:41:23.896Z,98420.30
2018-01-29T16:43:52.301Z,98414.72
2018-01-29T16:46:19.919Z,98414.42
2018-01-29T16:48:47.661Z,98412.11
2018-01-29T16:51:15.245Z,98407.69
2018-01-29T16:53:43.094Z,98403.89
2018-01-29T16:56:14.671Z,98400.30
2018-01-29T16:58:42.327Z,98398.38
2018-01-29T17:01:11.242Z,98400.63
2018-01-29T17:03:52.332Z,98395.98
2018-01-29T17:06:19.851Z,98403.16
2018-01-29T17:08:47.371Z,98406.41
2018-01-29T17:11:14.920Z,98400.63
2018-01-29T17:13:47.814Z,98398.30
2018-01-29T17:16:18.892Z,98389.72
2018-01-29T17:18:48.215Z,98395.89
2018-01-29T17:21:22.204Z,98392.12
2018-01-29T17:23:50.717Z,98395.08
2018-01-29T17:26:18.242Z,98385.83
2018-01-29T17:28:55.685Z,98384.85
2018-01-29T17:31:26.029Z,98389.75
2018-01-29T17:33:53.584Z,98396.36
2018-01-29T17:36:21.097Z,98394.16
2018-01-29T17:38:48.917Z,98395.33
2018-01-29T17:41:17.592Z,98388.45
2018-01-29T17:43:45.104Z,98387.08
2018-01-29T17:46:12.847Z,98391.38
2018-01-29T17:48:40.407Z,98394.23
2018-01-29T17:51:07.970Z,98396.36
2018-01-29T17:53:35.525Z,98391.95
2018-01-29T17:56:03.084Z,98395.05
2018-01-29T17:58:30.596Z,98401.74
2018-01-29T18:00:58.169Z,98394.00
2018-01-29T18:03:25.675Z,98391.34
2018-01-29T18:05:53.324Z,98388.09
2018-01-29T18:08:20.985Z,98387.67
2018-01-29T18:10:48.722Z,98405.56
2018-01-29T18:13:16.398Z,98400.13
2018-01-29T18:15:44.070Z,98396.00
2018-01-29T18:18:12.812Z,98395.92
2018-01-29T18:20:40.459Z,98400.77
2018-01-29T18:23:08.282Z,98407.90
2018-01-29T18:25:35.953Z,98400.30
2018-01-29T18:28:03.811Z,98400.34
2018-01-29T18:30:31.506Z,98396.13
2018-01-29T18:32:59.134Z,98395.34
2018-01-29T18:35:27.021Z,98394.79
2018-01-29T18:37:54.762Z,98382.86
2018-01-29T18:40:22.576Z,98384.28
2018-01-29T18:42:50.292Z,98396.00
2018-01-29T18:45:19.387Z,98402.84
2018-01-29T18:48:03.434Z,98404.52
2018-01-29T18:50:31.094Z,98401.86
2018-01-29T18:53:03.057Z,98394.38
2018-01-29T18:55:35.871Z,98396.13
2018-01-29T18:58:03.602Z,98400.14
2018-01-29T19:00:31.469Z,98405.84
2018-01-29T19:02:59.246Z,98399.64
2018-01-29T19:05:29.365Z,98399.44
2018-01-29T19:08:01.881Z,98410.80
2018-01-29T19:10:35.956Z,98409.17
2018-01-29T19:13:03.685Z,98412.41
2018-01-29T19:15:46.406Z,98410.85
2018-01-29T19:18:13.992Z,98412.76
2018-01-29T19:20:47.892Z,98403.27
2018-01-29T19:23:19.667Z,98398.61
2018-01-29T19:25:47.421Z,98414.91
2018-01-29T19:28:15.192Z,98404.09
2018-01-29T19:30:45.092Z,98399.30
2018-01-29T19:33:18.583Z,98401.53
2018-01-29T19:36:09.861Z,98391.81
2018-01-29T19:38:38.176Z,98399.52
2018-01-29T19:41:07.275Z,98409.24
2018-01-29T19:43:36.674Z,98409.59
2018-01-29T19:46:08.637Z,98414.54
2018-01-29T19:48:37.731Z,98426.08
2018-01-29T19:51:06.111Z,98427.09
2018-01-29T19:53:34.794Z,98444.06
2018-01-29T19:56:19.249Z,98454.05
2018-01-29T19:58:52.362Z,98463.27
2018-01-29T20:01:21.339Z,98461.39
2018-01-29T20:04:04.150Z,98463.98
2018-01-29T20:06:40.021Z,98460.31
2018-01-29T20:09:08.327Z,98457.16
2018-01-29T20:11:36.758Z,98462.56
2018-01-29T20:14:06.306Z,98467.44
2018-01-29T20:16:37.622Z,98476.01
2018-01-29T20:19:06.225Z,98463.32
2018-01-29T20:21:43.558Z,98463.56
2018-01-29T20:24:15.035Z,98458.10
2018-01-29T20:26:44.767Z,98457.78
2018-01-29T20:29:30.243Z,98454.17
2018-01-29T20:32:05.062Z,98468.79
2018-01-29T20:37:27.411Z,98489.11
2018-01-29T20:39:55.279Z,98479.88
2018-01-29T20:42:27.341Z,98472.06
2018-01-29T20:45:06.164Z,98494.75
2018-01-29T20:47:42.140Z,98486.48
2018-01-29T20:50:11.230Z,98479.48
2018-01-29T20:52:40.619Z,98479.77
2018-01-29T20:55:19.144Z,98473.03
2018-01-29T20:57:47.826Z,98480.33
2018-01-29T21:00:18.658Z,98468.52
2018-01-29T21:02:53.387Z,98463.55
2018-01-29T21:05:24.950Z,98468.00
2018-01-29T21:07:52.803Z,98469.45
2018-01-29T21:10:23.639Z,98463.44
2018-01-29T21:12:51.545Z,98461.19
2018-01-29T21:15:20.944Z,98465.97
2018-01-29T21:18:02.197Z,98464.70
2018-01-29T21:20:37.326Z,98475.19
2018-01-29T21:23:07.960Z,98477.47
2018-01-29T21:25:40.460Z,98481.50
2018-01-29T21:28:14.633Z,98482.98
2018-01-29T21:30:51.053Z,98493.23
2018-01-29T21:33:18.984Z,98484.22
2018-01-29T21:35:55.142Z,98487.64
2018-01-29T21:38:25.788Z,98488.70
2018-01-29T21:40:53.536Z,98495.56
2018-01-29T21:43:23.175Z,98487.51
2018-01-29T21:45:50.741Z,98489.56
2018-01-29T21:48:18.263Z,98488.18
2018-01-29T21:50:59.344Z,98500.25
2018-01-29T21:53:29.900Z,98493.00
2018-01-29T21:55:57.728Z,98493.31
2018-01-29T21:58:26.320Z,98503.33
2018-01-29T22:01:11.158Z,98498.97
2018-01-29T22:03:38.843Z,98497.75
2018-01-29T22:06:17.318Z,98503.56
2018-01-29T22:08:45.009Z,98499.11
2018-01-29T22:11:14.762Z,98488.80
2018-01-29T22:13:42.391Z,98492.23
2018-01-29T22:16:11.599Z,98495.11
2018-01-29T22:18:42.850Z,98494.51
2018-01-29T22:21:12.912Z,98491.31
2018-01-29T22:23:40.437Z,98496.34
2018-01-29T22:26:07.984Z,98479.63
2018-01-29T22:28:37.164Z,98487.38
2018-01-29T22:31:04.933Z,98485.88
2018-01-29T22:33:35.399Z,98492.44
2018-01-29T22:36:03.477Z,98492.66
2018-01-29T22:38:35.644Z,98491.20
2018-01-29T22:41:07.939Z,98488.84
2018-01-29T22:43:35.468Z,98493.18
2018-01-29T22:46:03.122Z,98483.16
2018-01-29T22:48:30.660Z,98484.25
2018-01-29T22:50:58.209Z,98498.94
2018-01-29T22:53:25.765Z,98489.90
2018-01-29T22:55:53.273Z,98493.06
2018-01-29T22:58:20.987Z,98495.56
2018-01-29T23:00:48.548Z,98500.44
2018-01-29T23:03:16.049Z,98498.99
2018-01-29T23:05:43.576Z,98497.45
2018-01-29T23:08:11.119Z,98494.66
2018-01-29T23:10:38.710Z,98508.94
2018-01-29T23:13:07.033Z,98506.36
2018-01-29T23:15:34.568Z,98510.11
2018-01-29T23:18:02.073Z,98503.45
2018-01-29T23:20:29.631Z,98504.38
2018-01-29T23:22:57.129Z,98504.80
2018-01-29T23:25:24.694Z,98500.58
2018-01-29T23:27:52.204Z,98511.94
2018-01-29T23:30:19.728Z,98504.47
2018-01-29T23:32:47.243Z,98508.32
2018-01-29T23:35:14.986Z,98509.87
2018-01-29T23:37:42.499Z,98504.86
2018-01-29T23:40:10.440Z,98528.98
2018-01-29T23:42:37.971Z,98510.81
2018-01-29T23:45:20.912Z,98512.76
2018-01-29T23:47:48.449Z,98522.30
2018-01-29T23:50:21.436Z,98522.39
2018-01-29T23:52:51.042Z,98518.94
2018-01-29T23:55:19.504Z,98522.38
2018-01-29T23:57:47.148Z,98519.46
